Time;durP1;ratioP1;P1;durP2;ratioP2;P2;SDS_P1;SDS_P2;PMS_P1;PMS_P2;Temp;Humidity;BMP_temperature;BMP_pressure;BME280_temperature;BME280_humidity;BME280_pressure;Samples;Min_cycle;Max_cycle;Signal;HPM_P1;HPM_P2
2021/01/23 00:01:41;;;;;;;10.27;6.03;;;;;;;;;;5089448;28;20031;-85
2021/01/23 00:04:07;;;;;;;10.50;6.45;;;;;;;;;;5069232;28;20040;-85
2021/01/23 00:06:33;;;;;;;13.98;7.13;;;;;;;;;;5065244;28;20040;-85
2021/01/23 00:08:59;;;;;;;12.50;6.05;;;;;;;;;;5075468;28;20028;-85
2021/01/23 00:11:25;;;;;;;10.88;6.35;;;;;;;;;;5086264;28;20473;-86
2021/01/23 00:13:51;;;;;;;11.27;6.40;;;;;;;;;;5068362;28;20397;-85
2021/01/23 00:16:17;;;;;;;8.80;6.15;;;;;;;;;;5095830;28;20024;-85
2021/01/23 00:18:43;;;;;;;10.60;6.03;;;;;;;;;;5095340;28;20036;-85
2021/01/23 00:21:10;;;;;;;14.05;6.53;;;;;;;;;;5080220;28;20024;-85
2021/01/23 00:23:36;;;;;;;10.88;6.32;;;;;;;;;;5096189;28;20426;-84
2021/01/23 00:26:03;;;;;;;11.93;7.07;;;;;;;;;;5076927;28;20024;-85
2021/01/23 00:28:29;;;;;;;9.10;6.15;;;;;;;;;;5077545;28;20119;-85
2021/01/23 00:30:55;;;;;;;9.32;6.40;;;;;;;;;;5077645;28;20040;-83
2021/01/23 00:33:21;;;;;;;11.95;6.97;;;;;;;;;;5086423;28;20124;-84
2021/01/23 00:35:47;;;;;;;12.80;6.15;;;;;;;;;;5078690;28;20028;-84
2021/01/23 00:38:13;;;;;;;10.70;6.30;;;;;;;;;;5088172;28;20123;-86
2021/01/23 00:40:39;;;;;;;9.65;5.93;;;;;;;;;;5096308;28;20071;-84
2021/01/23 00:43:05;;;;;;;10.30;5.88;;;;;;;;;;5079201;28;20020;-84
2021/01/23 00:45:31;;;;;;;10.07;5.45;;;;;;;;;;5096230;28;20054;-86
2021/01/23 00:47:57;;;;;;;11.75;6.57;;;;;;;;;;5070816;28;20029;-85
2021/01/23 00:50:23;;;;;;;8.43;6.35;;;;;;;;;;5077254;28;20079;-85
2021/01/23 00:52:49;;;;;;;12.82;6.35;;;;;;;;;;5060372;28;20090;-86
2021/01/23 00:55:16;;;;;;;13.75;6.28;;;;;;;;;;5060550;28;20024;-85
2021/01/23 00:57:42;;;;;;;10.85;5.88;;;;;;;;;;5059982;28;20032;-84
2021/01/23 01:00:09;;;;;;;9.68;5.85;;;;;;;;;;5061077;28;20115;-85
2021/01/23 01:02:35;;;;;;;12.05;5.60;;;;;;;;;;5061352;28;20040;-85
2021/01/23 01:05:01;;;;;;;11.25;6.10;;;;;;;;;;5079704;28;20028;-85
2021/01/23 01:07:27;;;;;;;9.52;6.00;;;;;;;;;;5066005;28;20501;-85
2021/01/23 01:09:53;;;;;;;13.13;5.65;;;;;;;;;;5066493;28;20044;-85
2021/01/23 01:12:22;;;;;;;13.40;5.90;;;;;;;;;;5091651;28;20008;-86
2021/01/23 01:14:48;;;;;;;11.65;5.70;;;;;;;;;;5086262;28;20032;-86
2021/01/23 01:17:14;;;;;;;10.32;5.60;;;;;;;;;;5116283;28;20012;-86
2021/01/23 01:19:40;;;;;;;10.10;6.30;;;;;;;;;;5116046;28;20031;-84
2021/01/23 01:22:06;;;;;;;11.20;5.85;;;;;;;;;;5102226;28;20042;-85
2021/01/23 01:24:32;;;;;;;14.73;5.95;;;;;;;;;;5120119;28;20038;-84
2021/01/23 01:27:01;;;;;;;13.55;6.05;;;;;;;;;;5102184;28;20016;-85
2021/01/23 01:29:27;;;;;;;10.40;6.27;;;;;;;;;;5100852;28;20048;-86
2021/01/23 01:31:53;;;;;;;10.82;5.95;;;;;;;;;;5101637;28;20261;-86
2021/01/23 01:34:19;;;;;;;10.13;5.72;;;;;;;;;;5091963;28;20028;-86
2021/01/23 01:36:45;;;;;;;13.57;5.90;;;;;;;;;;5106837;28;20032;-85
2021/01/23 01:39:11;;;;;;;10.60;6.15;;;;;;;;;;5098583;28;20028;-87
2021/01/23 01:41:38;;;;;;;10.82;6.07;;;;;;;;;;5092449;28;20034;-85
2021/01/23 01:44:05;;;;;;;11.57;6.00;;;;;;;;;;5090037;28;20335;-86
2021/01/23 01:46:32;;;;;;;8.85;5.60;;;;;;;;;;5081909;28;20032;-85
2021/01/23 01:48:59;;;;;;;11.15;5.68;;;;;;;;;;5097535;28;20089;-85
2021/01/23 01:51:26;;;;;;;12.50;5.82;;;;;;;;;;5082206;28;20032;-87
2021/01/23 01:53:53;;;;;;;12.40;5.38;;;;;;;;;;5082977;28;20434;-87
2021/01/23 01:56:19;;;;;;;12.18;6.22;;;;;;;;;;5081982;28;20031;-85
2021/01/23 01:58:45;;;;;;;7.57;5.15;;;;;;;;;;5082558;28;20032;-85
2021/01/23 02:01:11;;;;;;;10.18;5.32;;;;;;;;;;5099443;28;20092;-84
2021/01/23 02:03:41;;;;;;;7.53;4.93;;;;;;;;;;5080044;28;20020;-84
2021/01/23 02:06:40;;;;;;;8.05;5.47;;;;;;;;;;5079760;28;20035;-85
2021/01/23 02:09:10;;;;;;;11.45;5.57;;;;;;;;;;5008714;28;20048;-84
2021/01/23 02:11:41;;;;;;;9.07;4.85;;;;;;;;;;5062243;28;20088;-85
2021/01/23 02:14:26;;;;;;;9.77;5.75;;;;;;;;;;5062662;28;20446;-87
2021/01/23 02:16:53;;;;;;;8.55;5.15;;;;;;;;;;5077274;28;20030;-84
2021/01/23 02:19:29;;;;;;;9.68;6.05;;;;;;;;;;5080648;28;20024;-85
2021/01/23 02:21:55;;;;;;;11.90;6.55;;;;;;;;;;5098515;28;20119;-87
2021/01/23 02:24:25;;;;;;;8.20;5.65;;;;;;;;;;5080666;28;20036;-86
2021/01/23 02:27:21;;;;;;;10.68;5.60;;;;;;;;;;5080828;28;20032;-87
2021/01/23 02:30:05;;;;;;;7.55;5.65;;;;;;;;;;5059519;28;20067;-86
2021/01/23 02:32:32;;;;;;;10.35;5.72;;;;;;;;;;5079748;28;20043;-88
2021/01/23 02:34:59;;;;;;;8.75;5.70;;;;;;;;;;5080646;28;20024;-86
2021/01/23 02:37:26;;;;;;;10.07;4.97;;;;;;;;;;5098640;28;20079;-86
2021/01/23 02:39:52;;;;;;;7.55;5.30;;;;;;;;;;5098421;28;20038;-87
2021/01/23 02:42:18;;;;;;;9.18;5.45;;;;;;;;;;5081341;28;20028;-87
2021/01/23 02:44:45;;;;;;;12.77;5.55;;;;;;;;;;5080779;28;20077;-87
2021/01/23 02:47:11;;;;;;;6.35;5.15;;;;;;;;;;5098044;28;20081;-87
2021/01/23 02:49:37;;;;;;;9.90;5.20;;;;;;;;;;5098161;28;20097;-87
2021/01/23 02:52:11;;;;;;;9.10;5.55;;;;;;;;;;5080226;28;20024;-86
2021/01/23 02:54:38;;;;;;;6.88;4.63;;;;;;;;;;5097857;28;20048;-86
2021/01/23 02:57:05;;;;;;;8.57;4.85;;;;;;;;;;5097693;28;20065;-85
2021/01/23 02:59:31;;;;;;;7.95;4.38;;;;;;;;;;5080887;28;20051;-86
2021/01/23 03:01:57;;;;;;;9.40;5.57;;;;;;;;;;5072872;28;20404;-87
2021/01/23 03:04:23;;;;;;;7.57;5.10;;;;;;;;;;5091216;28;20035;-88
2021/01/23 03:06:50;;;;;;;8.05;4.90;;;;;;;;;;5069566;28;20034;-85
2021/01/23 03:09:26;;;;;;;9.27;5.35;;;;;;;;;;5082981;28;20129;-85
2021/01/23 03:11:53;;;;;;;10.32;4.57;;;;;;;;;;5064225;28;20526;-85
2021/01/23 03:14:19;;;;;;;10.05;5.55;;;;;;;;;;5051761;28;20041;-86
2021/01/23 03:16:52;;;;;;;8.27;4.88;;;;;;;;;;5055421;28;20026;-84
2021/01/23 03:19:19;;;;;;;6.35;4.93;;;;;;;;;;5079523;28;20028;-85
2021/01/23 03:21:47;;;;;;;10.73;5.13;;;;;;;;;;5071274;28;20032;-86
2021/01/23 03:24:13;;;;;;;10.32;5.07;;;;;;;;;;5059607;28;20032;-87
2021/01/23 03:26:39;;;;;;;8.85;4.70;;;;;;;;;;5077296;28;20035;-86
2021/01/23 03:29:05;;;;;;;8.00;4.88;;;;;;;;;;5072241;28;20074;-86
2021/01/23 03:31:32;;;;;;;9.52;4.47;;;;;;;;;;5097334;28;20110;-86
2021/01/23 03:33:59;;;;;;;7.40;4.30;;;;;;;;;;5065094;28;20029;-85
2021/01/23 03:36:25;;;;;;;7.38;4.65;;;;;;;;;;5059462;28;20032;-84
2021/01/23 03:38:52;;;;;;;7.63;4.70;;;;;;;;;;5072124;28;20024;-88
2021/01/23 03:41:21;;;;;;;10.27;4.90;;;;;;;;;;5077636;28;20101;-87
2021/01/23 03:43:47;;;;;;;9.55;4.47;;;;;;;;;;5082212;28;20028;-85
2021/01/23 03:46:14;;;;;;;6.68;4.20;;;;;;;;;;5097129;28;20093;-86
2021/01/23 03:48:40;;;;;;;11.50;5.88;;;;;;;;;;5079294;28;20335;-86
2021/01/23 03:51:06;;;;;;;9.18;5.25;;;;;;;;;;5079115;28;20047;-85
2021/01/23 03:53:32;;;;;;;10.85;5.13;;;;;;;;;;5079567;28;20020;-86
2021/01/23 03:55:59;;;;;;;9.02;4.75;;;;;;;;;;5079307;28;20036;-85
2021/01/23 03:58:25;;;;;;;5.47;4.05;;;;;;;;;;5079165;28;20056;-85
2021/01/23 04:00:51;;;;;;;6.00;3.92;;;;;;;;;;5097693;28;20032;-87
2021/01/23 04:03:17;;;;;;;9.13;4.57;;;;;;;;;;5097032;28;20036;-87
2021/01/23 04:05:43;;;;;;;7.85;4.43;;;;;;;;;;5095983;28;20055;-86
2021/01/23 04:08:09;;;;;;;11.05;4.70;;;;;;;;;;5079109;28;20031;-85
2021/01/23 04:10:36;;;;;;;5.95;4.25;;;;;;;;;;5079168;28;20047;-86
2021/01/23 04:13:03;;;;;;;8.60;5.25;;;;;;;;;;5096810;28;20031;-85
2021/01/23 04:15:29;;;;;;;6.32;4.43;;;;;;;;;;5087027;28;20042;-86
2021/01/23 04:17:55;;;;;;;8.85;4.38;;;;;;;;;;5096367;28;20024;-87
2021/01/23 04:20:21;;;;;;;10.68;4.22;;;;;;;;;;5019368;28;20038;-86
2021/01/23 04:22:47;;;;;;;6.70;4.13;;;;;;;;;;5082546;28;20053;-87
2021/01/23 04:25:17;;;;;;;10.98;4.43;;;;;;;;;;5013887;28;20444;-86
2021/01/23 04:27:43;;;;;;;6.90;4.53;;;;;;;;;;5081977;28;20026;-87
2021/01/23 04:30:11;;;;;;;7.30;4.88;;;;;;;;;;5002913;28;20045;-87
2021/01/23 04:32:37;;;;;;;7.90;4.47;;;;;;;;;;5013381;28;20022;-87
2021/01/23 04:35:04;;;;;;;6.47;4.13;;;;;;;;;;5082315;28;20041;-87
2021/01/23 04:37:31;;;;;;;6.80;4.55;;;;;;;;;;5013910;28;20034;-86
2021/01/23 04:39:57;;;;;;;8.32;3.88;;;;;;;;;;5081690;28;20120;-87
2021/01/23 04:42:23;;;;;;;8.02;4.10;;;;;;;;;;5013555;28;20062;-84
2021/01/23 04:44:49;;;;;;;7.72;4.70;;;;;;;;;;5081940;28;20052;-85
2021/01/23 04:47:15;;;;;;;7.55;5.03;;;;;;;;;;5081472;28;20026;-84
2021/01/23 04:49:41;;;;;;;5.95;4.22;;;;;;;;;;5081247;28;20057;-84
2021/01/23 04:52:08;;;;;;;5.95;4.05;;;;;;;;;;5081683;28;20025;-83
2021/01/23 04:54:35;;;;;;;8.20;4.72;;;;;;;;;;5081754;28;20029;-85
2021/01/23 04:57:01;;;;;;;6.95;3.95;;;;;;;;;;5015622;28;20429;-86
2021/01/23 04:59:28;;;;;;;7.03;4.05;;;;;;;;;;5084842;28;20038;-85
2021/01/23 05:02:13;;;;;;;5.13;3.83;;;;;;;;;;5016366;28;20021;-85
2021/01/23 05:05:03;;;;;;;5.50;4.53;;;;;;;;;;5085530;28;20034;-85
2021/01/23 05:07:35;;;;;;;5.50;3.80;;;;;;;;;;5061132;28;20183;-86
2021/01/23 05:10:23;;;;;;;8.55;4.53;;;;;;;;;;5050625;28;20046;-86
2021/01/23 05:12:50;;;;;;;6.78;3.65;;;;;;;;;;5061829;28;20032;-86
2021/01/23 05:15:26;;;;;;;9.32;4.55;;;;;;;;;;5079202;28;20091;-86
2021/01/23 05:18:06;;;;;;;6.90;3.78;;;;;;;;;;5061886;28;20020;-85
2021/01/23 05:20:43;;;;;;;6.50;3.72;;;;;;;;;;5061986;28;20134;-87
2021/01/23 05:23:09;;;;;;;6.78;4.53;;;;;;;;;;5061838;28;20024;-87
2021/01/23 05:25:36;;;;;;;8.73;4.10;;;;;;;;;;5061739;28;20039;-85
2021/01/23 05:28:03;;;;;;;6.05;3.80;;;;;;;;;;5051696;28;20031;-86
2021/01/23 05:30:40;;;;;;;6.95;3.90;;;;;;;;;;5061056;28;20121;-88
2021/01/23 05:33:07;;;;;;;6.68;4.35;;;;;;;;;;5079303;28;20090;-86
2021/01/23 05:35:33;;;;;;;7.82;4.60;;;;;;;;;;5079176;28;20050;-87
2021/01/23 05:37:59;;;;;;;6.15;4.05;;;;;;;;;;5061614;28;20032;-87
2021/01/23 05:40:29;;;;;;;7.45;4.88;;;;;;;;;;5061949;28;20332;-87
2021/01/23 05:42:55;;;;;;;7.20;4.63;;;;;;;;;;5061741;28;20416;-88
2021/01/23 05:45:21;;;;;;;10.77;4.03;;;;;;;;;;5061196;28;20032;-87
2021/01/23 05:47:48;;;;;;;6.53;4.30;;;;;;;;;;5086038;28;20024;-87
2021/01/23 05:50:14;;;;;;;5.13;4.53;;;;;;;;;;5080852;28;20055;-87
2021/01/23 05:52:40;;;;;;;7.38;4.18;;;;;;;;;;5092656;28;20037;-85
2021/01/23 05:55:06;;;;;;;4.93;3.42;;;;;;;;;;5065352;28;20024;-86
2021/01/23 05:57:33;;;;;;;6.22;4.25;;;;;;;;;;5062188;28;20029;-86
2021/01/23 05:59:59;;;;;;;9.02;4.47;;;;;;;;;;5062319;28;20174;-85
2021/01/23 06:02:26;;;;;;;7.75;4.65;;;;;;;;;;5061677;28;20028;-87
2021/01/23 06:04:52;;;;;;;6.70;4.72;;;;;;;;;;5079116;28;20035;-86
2021/01/23 06:07:38;;;;;;;7.95;4.43;;;;;;;;;;5062568;28;20804;-86
2021/01/23 06:10:04;;;;;;;6.60;4.82;;;;;;;;;;5097815;28;20046;-84
2021/01/23 06:12:31;;;;;;;8.25;5.40;;;;;;;;;;5098088;28;20043;-86
2021/01/23 06:14:57;;;;;;;5.80;4.60;;;;;;;;;;5098162;28;20140;-85
2021/01/23 06:17:42;;;;;;;12.20;4.97;;;;;;;;;;5097920;28;20035;-87
2021/01/23 06:20:08;;;;;;;10.05;4.22;;;;;;;;;;5084482;28;20026;-85
2021/01/23 06:22:55;;;;;;;6.50;4.20;;;;;;;;;;5083196;28;20034;-87
2021/01/23 06:25:21;;;;;;;10.73;4.75;;;;;;;;;;5084191;28;20045;-84
2021/01/23 06:27:48;;;;;;;8.40;4.38;;;;;;;;;;5084101;28;20099;-86
2021/01/23 06:30:40;;;;;;;6.55;4.03;;;;;;;;;;5084287;28;20044;-88
2021/01/23 06:33:39;;;;;;;8.57;4.07;;;;;;;;;;5080440;28;20053;-86
2021/01/23 06:36:10;;;;;;;7.88;4.20;;;;;;;;;;5040665;28;20046;-85
2021/01/23 06:38:36;;;;;;;6.88;4.18;;;;;;;;;;5084411;28;20077;-87
2021/01/23 06:41:21;;;;;;;8.90;4.68;;;;;;;;;;5015605;28;20041;-86
2021/01/23 06:44:06;;;;;;;7.45;4.95;;;;;;;;;;5083896;28;20036;-85
2021/01/23 06:46:32;;;;;;;6.22;4.25;;;;;;;;;;5015839;28;20033;-86
2021/01/23 06:49:02;;;;;;;7.38;4.38;;;;;;;;;;5007564;28;20042;-85
2021/01/23 06:51:28;;;;;;;6.90;4.18;;;;;;;;;;5098507;28;20044;-85
2021/01/23 06:54:33;;;;;;;7.57;4.60;;;;;;;;;;5086527;28;20017;-85
2021/01/23 06:56:59;;;;;;;7.78;5.25;;;;;;;;;;5017148;28;20030;-86
2021/01/23 06:59:32;;;;;;;5.25;4.03;;;;;;;;;;5016768;28;20034;-87
2021/01/23 07:02:06;;;;;;;10.05;4.47;;;;;;;;;;5041470;28;20033;-87
2021/01/23 07:04:33;;;;;;;10.20;4.80;;;;;;;;;;5086439;28;20053;-85
2021/01/23 07:06:59;;;;;;;6.03;5.03;;;;;;;;;;5081183;28;20036;-87
2021/01/23 07:09:44;;;;;;;11.73;4.70;;;;;;;;;;5068699;28;20040;-87
2021/01/23 07:12:11;;;;;;;7.88;4.40;;;;;;;;;;5082264;28;20177;-85
2021/01/23 07:14:37;;;;;;;7.85;4.68;;;;;;;;;;5094676;28;20036;-85
2021/01/23 07:17:03;;;;;;;9.90;4.97;;;;;;;;;;5102570;28;20046;-85
2021/01/23 07:19:29;;;;;;;8.30;4.43;;;;;;;;;;5096381;28;20020;-85
2021/01/23 07:21:56;;;;;;;7.28;4.25;;;;;;;;;;5082409;28;20042;-85
2021/01/23 07:24:22;;;;;;;7.45;5.15;;;;;;;;;;5077768;28;20166;-85
2021/01/23 07:26:48;;;;;;;8.20;4.60;;;;;;;;;;5095090;28;20023;-85
2021/01/23 07:29:14;;;;;;;6.38;4.45;;;;;;;;;;5096027;28;20074;-84
2021/01/23 07:31:41;;;;;;;7.05;4.68;;;;;;;;;;5097574;28;20037;-84
2021/01/23 07:34:11;;;;;;;6.97;4.57;;;;;;;;;;5075047;28;20027;-85
2021/01/23 07:36:38;;;;;;;5.45;4.25;;;;;;;;;;4996888;28;20036;-87
2021/01/23 07:39:09;;;;;;;4.85;4.18;;;;;;;;;;5078313;28;20020;-85
2021/01/23 07:41:36;;;;;;;9.10;4.63;;;;;;;;;;5094041;28;20173;-85
2021/01/23 07:44:03;;;;;;;5.85;4.32;;;;;;;;;;5092614;28;20024;-85
2021/01/23 07:46:43;;;;;;;8.10;4.80;;;;;;;;;;5093795;28;20078;-84
2021/01/23 07:49:10;;;;;;;8.80;4.22;;;;;;;;;;5097281;28;20032;-84
2021/01/23 07:51:37;;;;;;;8.15;5.18;;;;;;;;;;5077633;28;20032;-85
2021/01/23 07:54:04;;;;;;;6.35;4.57;;;;;;;;;;5091095;28;20089;-85
2021/01/23 07:56:31;;;;;;;4.65;3.78;;;;;;;;;;5095815;28;20038;-86
2021/01/23 07:58:57;;;;;;;6.30;5.05;;;;;;;;;;5090712;28;20047;-85
2021/01/23 08:01:23;;;;;;;7.80;4.82;;;;;;;;;;5098405;28;20030;-85
2021/01/23 08:03:49;;;;;;;6.75;4.32;;;;;;;;;;5098729;28;20034;-85
2021/01/23 08:06:25;;;;;;;10.05;4.40;;;;;;;;;;5063014;28;20343;-85
2021/01/23 08:08:52;;;;;;;10.40;5.43;;;;;;;;;;4998675;28;20266;-85
2021/01/23 08:11:33;;;;;;;6.70;4.85;;;;;;;;;;5080063;28;20039;-86
2021/01/23 08:14:10;;;;;;;6.55;4.90;;;;;;;;;;5079402;28;20125;-85
2021/01/23 08:16:36;;;;;;;6.20;4.40;;;;;;;;;;5079489;28;20085;-84
2021/01/23 08:19:11;;;;;;;7.68;5.75;;;;;;;;;;5079515;28;20024;-84
2021/01/23 08:21:37;;;;;;;7.03;4.63;;;;;;;;;;5078688;28;20035;-84
2021/01/23 08:24:03;;;;;;;6.18;5.18;;;;;;;;;;5078288;28;20032;-85
2021/01/23 08:26:39;;;;;;;4.63;3.90;;;;;;;;;;5096535;28;20028;-86
2021/01/23 08:29:05;;;;;;;6.28;3.97;;;;;;;;;;5097282;28;20028;-85
2021/01/23 08:31:32;;;;;;;8.65;5.75;;;;;;;;;;5082211;28;20036;-85
2021/01/23 08:33:58;;;;;;;7.50;5.38;;;;;;;;;;5081975;28;20385;-87
2021/01/23 08:36:25;;;;;;;6.88;5.45;;;;;;;;;;5081818;28;20134;-86
2021/01/23 08:39:06;;;;;;;7.07;5.07;;;;;;;;;;5080716;28;20040;-85
2021/01/23 08:41:33;;;;;;;6.97;5.07;;;;;;;;;;5081868;28;20039;-86
2021/01/23 08:43:59;;;;;;;8.10;4.78;;;;;;;;;;5081413;28;20020;-87
2021/01/23 08:46:25;;;;;;;11.45;5.65;;;;;;;;;;5081680;28;20059;-86
2021/01/23 08:48:51;;;;;;;8.55;5.00;;;;;;;;;;5082329;28;20032;-85
2021/01/23 08:51:18;;;;;;;7.65;4.80;;;;;;;;;;5082159;28;20234;-83
2021/01/23 08:53:44;;;;;;;8.00;4.35;;;;;;;;;;5071763;28;20024;-85
2021/01/23 08:56:15;;;;;;;6.45;4.57;;;;;;;;;;5082881;28;20055;-85
2021/01/23 08:58:41;;;;;;;7.72;4.68;;;;;;;;;;5081922;28;20032;-85
2021/01/23 09:01:08;;;;;;;7.20;5.47;;;;;;;;;;5099647;28;20364;-86
2021/01/23 09:03:34;;;;;;;6.65;4.43;;;;;;;;;;5100622;28;20032;-86
2021/01/23 09:06:00;;;;;;;6.82;4.47;;;;;;;;;;5100158;28;20058;-85
2021/01/23 09:08:26;;;;;;;5.82;5.00;;;;;;;;;;5099872;28;20078;-84
2021/01/23 09:10:52;;;;;;;5.60;4.90;;;;;;;;;;5078726;28;20039;-85
2021/01/23 09:13:19;;;;;;;9.93;5.47;;;;;;;;;;5089239;28;20130;-85
2021/01/23 09:15:45;;;;;;;7.20;5.13;;;;;;;;;;5062198;28;20021;-85
2021/01/23 09:18:11;;;;;;;8.52;4.97;;;;;;;;;;5077871;28;20043;-85
2021/01/23 09:20:37;;;;;;;7.65;4.60;;;;;;;;;;5066399;28;20025;-85
2021/01/23 09:23:03;;;;;;;5.38;4.32;;;;;;;;;;5077915;28;20101;-85
2021/01/23 09:25:29;;;;;;;8.57;4.93;;;;;;;;;;5081165;28;20115;-85
2021/01/23 09:27:55;;;;;;;6.72;4.82;;;;;;;;;;5082596;28;20028;-85
2021/01/23 09:30:22;;;;;;;4.75;4.20;;;;;;;;;;5081200;28;20093;-85
2021/01/23 09:32:48;;;;;;;7.18;4.82;;;;;;;;;;5081583;28;20027;-86
2021/01/23 09:35:14;;;;;;;6.18;4.63;;;;;;;;;;5098645;28;20020;-85
2021/01/23 09:37:40;;;;;;;7.53;4.55;;;;;;;;;;5082374;28;20398;-87
2021/01/23 09:40:07;;;;;;;5.70;3.97;;;;;;;;;;5081414;28;20034;-85
2021/01/23 09:42:33;;;;;;;6.80;5.07;;;;;;;;;;5080939;28;20347;-87
2021/01/23 09:44:59;;;;;;;7.63;4.72;;;;;;;;;;5098353;28;20020;-84
2021/01/23 09:47:25;;;;;;;8.45;4.28;;;;;;;;;;5098253;28;20054;-84
2021/01/23 09:49:51;;;;;;;5.88;4.50;;;;;;;;;;5095589;28;20090;-86
2021/01/23 09:52:18;;;;;;;6.75;4.13;;;;;;;;;;5088415;28;20051;-85
2021/01/23 09:54:44;;;;;;;5.95;4.32;;;;;;;;;;5079405;28;20031;-84
2021/01/23 09:57:10;;;;;;;5.93;4.28;;;;;;;;;;5076229;28;20035;-86
2021/01/23 09:59:38;;;;;;;5.47;3.95;;;;;;;;;;5081232;28;20043;-84
2021/01/23 10:02:04;;;;;;;9.15;4.65;;;;;;;;;;5080631;28;20036;-88
2021/01/23 10:04:31;;;;;;;6.43;4.72;;;;;;;;;;5080685;28;20486;-85
2021/01/23 10:06:57;;;;;;;8.35;4.38;;;;;;;;;;5080662;28;20050;-85
2021/01/23 10:09:23;;;;;;;5.80;4.35;;;;;;;;;;5094036;28;20027;-85
2021/01/23 10:11:50;;;;;;;5.22;4.03;;;;;;;;;;5078058;28;20123;-85
2021/01/23 10:14:16;;;;;;;5.47;3.97;;;;;;;;;;5089211;28;20022;-84
2021/01/23 10:16:42;;;;;;;8.77;4.10;;;;;;;;;;5103772;28;20081;-84
2021/01/23 10:19:08;;;;;;;7.80;3.92;;;;;;;;;;5101560;28;20020;-86
2021/01/23 10:21:35;;;;;;;5.75;4.22;;;;;;;;;;5062609;28;20057;-84
2021/01/23 10:24:01;;;;;;;5.47;3.78;;;;;;;;;;5085500;28;20120;-86
2021/01/23 10:26:28;;;;;;;3.95;3.35;;;;;;;;;;5082597;28;20057;-86
2021/01/23 10:28:54;;;;;;;3.67;3.35;;;;;;;;;;5083606;28;20473;-85
2021/01/23 10:31:20;;;;;;;5.93;4.05;;;;;;;;;;5083414;28;20242;-85
2021/01/23 10:33:46;;;;;;;4.20;3.80;;;;;;;;;;5060159;28;20051;-86
2021/01/23 10:36:12;;;;;;;4.55;3.60;;;;;;;;;;5097797;28;20249;-85
2021/01/23 10:38:39;;;;;;;5.07;4.07;;;;;;;;;;5097169;28;20035;-83
2021/01/23 10:41:05;;;;;;;5.15;3.60;;;;;;;;;;5079688;28;20036;-85
2021/01/23 10:43:32;;;;;;;5.95;3.83;;;;;;;;;;5079566;28;20028;-84
2021/01/23 10:45:58;;;;;;;6.80;3.63;;;;;;;;;;5079386;28;20028;-85
2021/01/23 10:48:24;;;;;;;5.13;3.33;;;;;;;;;;5079759;28;20035;-86
2021/01/23 10:50:50;;;;;;;4.40;3.47;;;;;;;;;;5080241;28;20069;-85
2021/01/23 10:53:17;;;;;;;5.22;3.35;;;;;;;;;;5079223;28;20028;-85
2021/01/23 10:55:43;;;;;;;7.07;3.90;;;;;;;;;;5079887;28;20487;-87
2021/01/23 10:58:09;;;;;;;6.88;3.38;;;;;;;;;;5079657;28;20074;-85
2021/01/23 11:00:35;;;;;;;3.85;3.00;;;;;;;;;;5079968;28;20016;-84
2021/01/23 11:03:01;;;;;;;7.30;2.95;;;;;;;;;;5080019;28;20032;-84
2021/01/23 11:05:27;;;;;;;5.13;3.60;;;;;;;;;;5080401;28;20028;-85
2021/01/23 11:07:53;;;;;;;7.00;3.22;;;;;;;;;;5080342;28;20027;-85
2021/01/23 11:10:20;;;;;;;5.60;3.78;;;;;;;;;;5079874;28;20065;-85
2021/01/23 11:12:46;;;;;;;4.07;3.05;;;;;;;;;;5097715;28;20020;-85
2021/01/23 11:15:12;;;;;;;4.85;3.45;;;;;;;;;;5096882;28;20028;-85
2021/01/23 11:17:38;;;;;;;4.88;2.88;;;;;;;;;;5098469;28;20106;-85
2021/01/23 11:20:05;;;;;;;4.95;3.30;;;;;;;;;;5079728;28;20044;-85
2021/01/23 11:22:31;;;;;;;4.13;2.80;;;;;;;;;;5098492;28;20024;-85
2021/01/23 11:24:57;;;;;;;6.53;3.65;;;;;;;;;;5080614;28;20028;-85
2021/01/23 11:27:23;;;;;;;4.68;2.67;;;;;;;;;;5096052;28;20020;-86
2021/01/23 11:29:50;;;;;;;5.75;2.75;;;;;;;;;;5037511;28;20046;-85
2021/01/23 11:32:16;;;;;;;4.10;2.88;;;;;;;;;;5062360;28;20027;-85
2021/01/23 11:34:43;;;;;;;7.65;2.60;;;;;;;;;;5062700;28;20038;-84
2021/01/23 11:37:09;;;;;;;3.63;2.90;;;;;;;;;;5080722;28;20020;-86
2021/01/23 11:39:36;;;;;;;5.75;2.78;;;;;;;;;;5079994;28;20020;-84
2021/01/23 11:42:03;;;;;;;3.90;2.67;;;;;;;;;;5097749;28;20023;-83
2021/01/23 11:44:29;;;;;;;6.55;2.67;;;;;;;;;;5097645;28;20328;-86
2021/01/23 11:46:55;;;;;;;8.88;2.50;;;;;;;;;;5080104;28;20032;-84
2021/01/23 11:49:21;;;;;;;4.00;2.25;;;;;;;;;;5079956;28;20024;-87
2021/01/23 11:51:48;;;;;;;3.97;2.28;;;;;;;;;;5080108;28;20049;-84
2021/01/23 11:54:15;;;;;;;3.88;2.50;;;;;;;;;;5079113;28;20024;-84
2021/01/23 11:56:42;;;;;;;5.22;2.38;;;;;;;;;;5084019;28;20077;-84
2021/01/23 11:59:08;;;;;;;5.28;2.42;;;;;;;;;;5096422;28;20063;-84
2021/01/23 12:01:34;;;;;;;5.90;2.20;;;;;;;;;;5089534;28;20028;-84
2021/01/23 12:04:00;;;;;;;5.70;2.35;;;;;;;;;;5079765;28;20135;-84
2021/01/23 12:06:26;;;;;;;3.85;1.63;;;;;;;;;;5098180;28;20024;-84
2021/01/23 12:08:52;;;;;;;6.50;3.03;;;;;;;;;;5079683;28;20031;-85
2021/01/23 12:11:18;;;;;;;3.00;1.88;;;;;;;;;;5079677;28;20040;-84
2021/01/23 12:13:44;;;;;;;4.55;1.80;;;;;;;;;;5079446;28;20031;-84
2021/01/23 12:16:11;;;;;;;3.80;1.67;;;;;;;;;;5079916;28;20427;-84
2021/01/23 12:18:37;;;;;;;3.30;2.00;;;;;;;;;;5097122;28;20024;-85
2021/01/23 12:21:03;;;;;;;6.45;1.80;;;;;;;;;;5079914;28;20082;-84
2021/01/23 12:23:29;;;;;;;3.67;1.52;;;;;;;;;;5097414;28;20028;-83
2021/01/23 12:25:55;;;;;;;3.22;1.58;;;;;;;;;;5097285;28;20439;-85
2021/01/23 12:28:21;;;;;;;3.22;1.70;;;;;;;;;;5079938;28;20485;-85
2021/01/23 12:30:47;;;;;;;2.38;1.20;;;;;;;;;;5079181;28;20071;-84
2021/01/23 12:33:13;;;;;;;2.50;1.30;;;;;;;;;;5079492;28;20035;-84
2021/01/23 12:35:40;;;;;;;7.93;1.42;;;;;;;;;;5097355;28;20134;-84
2021/01/23 12:38:06;;;;;;;2.40;1.30;;;;;;;;;;5079367;28;20397;-85
2021/01/23 12:40:32;;;;;;;1.70;1.10;;;;;;;;;;5097434;28;20069;-83
2021/01/23 12:42:58;;;;;;;2.00;1.00;;;;;;;;;;5080164;28;20028;-84
2021/01/23 12:45:24;;;;;;;1.83;1.05;;;;;;;;;;5081049;28;20035;-86
2021/01/23 12:47:50;;;;;;;2.63;1.00;;;;;;;;;;5100571;28;20058;-84
2021/01/23 12:50:16;;;;;;;4.80;1.77;;;;;;;;;;5082756;28;20546;-83
2021/01/23 12:52:42;;;;;;;3.03;1.30;;;;;;;;;;5101303;28;20036;-83
2021/01/23 12:55:09;;;;;;;2.95;1.25;;;;;;;;;;5083357;28;20028;-84
2021/01/23 12:57:35;;;;;;;2.95;1.25;;;;;;;;;;5081539;28;20031;-84
2021/01/23 13:00:02;;;;;;;1.80;1.00;;;;;;;;;;5109962;28;20020;-84
2021/01/23 13:02:28;;;;;;;2.70;0.88;;;;;;;;;;5117220;28;20036;-85
2021/01/23 13:04:57;;;;;;;1.42;1.20;;;;;;;;;;5102780;28;20062;-85
2021/01/23 13:07:23;;;;;;;1.77;1.15;;;;;;;;;;5103465;28;20024;-84
2021/01/23 13:09:49;;;;;;;3.63;1.30;;;;;;;;;;5084520;28;20039;-83
2021/01/23 13:12:15;;;;;;;1.73;1.50;;;;;;;;;;5082287;28;20086;-81
2021/01/23 13:14:41;;;;;;;5.03;1.30;;;;;;;;;;5081448;28;20032;-83
2021/01/23 13:17:07;;;;;;;3.67;1.13;;;;;;;;;;5082326;28;20028;-86
2021/01/23 13:19:33;;;;;;;4.70;1.25;;;;;;;;;;5084818;28;20332;-84
2021/01/23 13:21:59;;;;;;;2.35;1.00;;;;;;;;;;5084613;28;20450;-84
2021/01/23 13:24:25;;;;;;;4.35;1.67;;;;;;;;;;5085433;28;20060;-85
2021/01/23 13:26:52;;;;;;;2.58;1.13;;;;;;;;;;5085478;28;20040;-84
2021/01/23 13:29:18;;;;;;;4.15;1.60;;;;;;;;;;5101847;28;20024;-84
2021/01/23 13:31:44;;;;;;;1.83;1.10;;;;;;;;;;5084419;28;20075;-84
2021/01/23 13:34:10;;;;;;;5.82;1.70;;;;;;;;;;5086006;28;20031;-85
2021/01/23 13:36:36;;;;;;;5.68;1.33;;;;;;;;;;5085453;28;20070;-85
2021/01/23 13:39:03;;;;;;;3.35;1.17;;;;;;;;;;5085707;28;20124;-87
2021/01/23 13:41:29;;;;;;;6.22;2.33;;;;;;;;;;5086954;28;20351;-86
2021/01/23 13:43:55;;;;;;;3.47;1.17;;;;;;;;;;5109513;28;20090;-84
2021/01/23 13:46:21;;;;;;;2.65;1.30;;;;;;;;;;5098784;28;20032;-84
2021/01/23 13:48:48;;;;;;;3.80;1.42;;;;;;;;;;5111366;28;20024;-86
2021/01/23 13:51:14;;;;;;;2.92;1.50;;;;;;;;;;5099609;28;20034;-84
2021/01/23 13:53:40;;;;;;;4.10;1.85;;;;;;;;;;5100327;28;20043;-84
2021/01/23 13:56:06;;;;;;;2.17;1.30;;;;;;;;;;5100701;28;20039;-85
2021/01/23 13:58:32;;;;;;;4.38;1.98;;;;;;;;;;5117886;28;20019;-85
2021/01/23 14:00:59;;;;;;;3.40;1.55;;;;;;;;;;5107415;28;20028;-84
2021/01/23 14:03:25;;;;;;;4.38;1.90;;;;;;;;;;5099464;28;20040;-83
2021/01/23 14:05:51;;;;;;;3.60;1.30;;;;;;;;;;5099321;28;20376;-84
2021/01/23 14:08:17;;;;;;;2.78;1.42;;;;;;;;;;5115120;28;20034;-85
2021/01/23 14:10:43;;;;;;;5.00;1.45;;;;;;;;;;5116660;28;20044;-85
2021/01/23 14:13:09;;;;;;;2.60;1.35;;;;;;;;;;5099525;28;20091;-84
2021/01/23 14:15:35;;;;;;;2.10;1.30;;;;;;;;;;5096896;28;20028;-86
2021/01/23 14:18:01;;;;;;;3.90;1.40;;;;;;;;;;5115477;28;20027;-84
2021/01/23 14:20:28;;;;;;;3.63;1.75;;;;;;;;;;5097542;28;20036;-85
2021/01/23 14:22:54;;;;;;;3.20;1.10;;;;;;;;;;5113382;28;20051;-85
2021/01/23 14:25:21;;;;;;;4.13;1.40;;;;;;;;;;5093974;28;20056;-85
2021/01/23 14:27:47;;;;;;;2.35;1.35;;;;;;;;;;5091692;28;20042;-86
2021/01/23 14:30:13;;;;;;;2.65;1.20;;;;;;;;;;5106368;28;20040;-84
2021/01/23 14:32:40;;;;;;;1.75;1.30;;;;;;;;;;5102630;28;20043;-84
2021/01/23 14:35:10;;;;;;;1.85;1.10;;;;;;;;;;5098521;28;20015;-84
2021/01/23 14:37:39;;;;;;;2.78;1.38;;;;;;;;;;5081461;28;20040;-84
2021/01/23 14:40:05;;;;;;;;;;;;;;;;;;5081610;28;20036;-84
2021/01/23 14:42:31;;;;;;;2.20;0.93;;;;;;;;;;5081560;28;19922;-85
2021/01/23 14:44:59;;;;;;;3.55;1.27;;;;;;;;;;5081153;28;20346;-84